createdAt,value
2017-11-12T00:00:53.194Z,99889
2017-11-12T00:03:21.356Z,99895
2017-11-12T00:05:50.263Z,99894
2017-11-12T00:08:18.424Z,99900
2017-11-12T00:10:47.364Z,99895
2017-11-12T00:13:15.637Z,99890
2017-11-12T00:15:43.784Z,99902
2017-11-12T00:18:11.973Z,99905
2017-11-12T00:20:40.524Z,99895
2017-11-12T00:23:08.734Z,99904
2017-11-12T00:25:37.296Z,99896
2017-11-12T00:28:05.436Z,99892
2017-11-12T00:30:34.360Z,99887
2017-11-12T00:33:02.561Z,99889
2017-11-12T00:35:30.711Z,99896
2017-11-12T00:37:58.905Z,99907
2017-11-12T00:40:27.080Z,99896
2017-11-12T00:42:55.256Z,99908
2017-11-12T00:45:23.405Z,99901
2017-11-12T00:47:51.569Z,99900
2017-11-12T00:50:19.716Z,99900
2017-11-12T00:52:48.622Z,99912
2017-11-12T00:55:16.826Z,99900
2017-11-12T00:57:45.264Z,99911
2017-11-12T01:00:14.191Z,99908
2017-11-12T01:02:42.318Z,99909
2017-11-12T01:05:12.511Z,99905
2017-11-12T01:07:41.432Z,99912
2017-11-12T01:10:10.345Z,99904
2017-11-12T01:12:38.781Z,99911
2017-11-12T01:15:07.310Z,99913
2017-11-12T01:17:35.468Z,99910
2017-11-12T01:20:03.623Z,99919
2017-11-12T01:22:32.589Z,99917
2017-11-12T01:25:00.724Z,99914
2017-11-12T01:27:28.881Z,99912
2017-11-12T01:29:57.086Z,99904
2017-11-12T01:32:25.243Z,99907
2017-11-12T01:34:53.485Z,99911
2017-11-12T01:37:22.415Z,99908
2017-11-12T01:39:50.568Z,99912
2017-11-12T01:42:18.696Z,99902
2017-11-12T01:44:46.848Z,99914
2017-11-12T01:47:15.696Z,99912
2017-11-12T01:49:43.905Z,99912
2017-11-12T01:52:12.035Z,99910
2017-11-12T01:54:40.193Z,99906
2017-11-12T01:57:09.099Z,99903
2017-11-12T01:59:38.073Z,99914
2017-11-12T02:02:07.045Z,99914
2017-11-12T02:04:35.200Z,99911
2017-11-12T02:07:03.362Z,99912
2017-11-12T02:09:31.538Z,99912
2017-11-12T02:11:59.659Z,99901
2017-11-12T02:14:28.575Z,99911
2017-11-12T02:16:56.720Z,99910
2017-11-12T02:19:25.761Z,99925
2017-11-12T02:21:53.942Z,99916
2017-11-12T02:24:22.086Z,99918
2017-11-12T02:26:50.237Z,99919
2017-11-12T02:29:19.193Z,99911
2017-11-12T02:31:47.334Z,99919
2017-11-12T02:34:15.465Z,99917
2017-11-12T02:36:44.395Z,99919
2017-11-12T02:39:12.531Z,99921
2017-11-12T02:41:41.450Z,99929
2017-11-12T02:44:09.580Z,99927
2017-11-12T02:46:37.723Z,99925
2017-11-12T02:49:05.852Z,99935
2017-11-12T02:51:34.057Z,99936
2017-11-12T02:54:02.426Z,99933
2017-11-12T02:56:30.590Z,99940
2017-11-12T02:58:58.725Z,99925
2017-11-12T03:01:27.661Z,99935
2017-11-12T03:03:56.623Z,99938
2017-11-12T03:06:25.648Z,99930
2017-11-12T03:08:54.043Z,99938
2017-11-12T03:11:22.200Z,99931
2017-11-12T03:13:50.605Z,99935
2017-11-12T03:16:18.805Z,99937
2017-11-12T03:18:47.713Z,99942
2017-11-12T03:21:15.901Z,99945
2017-11-12T03:23:44.106Z,99938
2017-11-12T03:26:12.271Z,99934
2017-11-12T03:28:40.431Z,99938
2017-11-12T03:31:08.593Z,99944
2017-11-12T03:33:37.015Z,99937
2017-11-12T03:36:05.173Z,99924
2017-11-12T03:38:33.430Z,99943
2017-11-12T03:41:01.602Z,99944
2017-11-12T03:43:29.773Z,99939
2017-11-12T03:45:57.912Z,99941
2017-11-12T03:48:26.833Z,99946
2017-11-12T03:50:54.973Z,99944
2017-11-12T03:53:24.087Z,99948
2017-11-12T03:55:52.232Z,99944
2017-11-12T03:58:21.157Z,99948
2017-11-12T04:00:49.287Z,99945
2017-11-12T04:03:17.430Z,99939
2017-11-12T04:05:45.605Z,99949
2017-11-12T04:08:14.168Z,99950
2017-11-12T04:10:42.336Z,99938
2017-11-12T04:13:10.495Z,99948
2017-11-12T04:15:38.681Z,99932
2017-11-12T04:18:06.806Z,99942
2017-11-12T04:20:35.732Z,99933
2017-11-12T04:23:03.924Z,99938
2017-11-12T04:25:32.105Z,99935
2017-11-12T04:28:00.245Z,99929
2017-11-12T04:30:28.438Z,99937
2017-11-12T04:32:56.585Z,99934
2017-11-12T04:35:24.740Z,99934
2017-11-12T04:37:53.809Z,99934
2017-11-12T04:40:22.047Z,99930
2017-11-12T04:42:50.202Z,99937
2017-11-12T04:45:18.341Z,99933
2017-11-12T04:47:47.286Z,99933
2017-11-12T04:50:15.881Z,99923
2017-11-12T04:52:44.043Z,99939
2017-11-12T04:55:12.176Z,99940
2017-11-12T04:57:41.111Z,99928
2017-11-12T05:00:09.249Z,99931
2017-11-12T05:02:37.698Z,99921
2017-11-12T05:05:05.831Z,99933
2017-11-12T05:07:33.978Z,99927
2017-11-12T05:10:02.110Z,99919
2017-11-12T05:12:30.278Z,99909
2017-11-12T05:14:58.433Z,99910
2017-11-12T05:17:26.708Z,99910
2017-11-12T05:19:54.874Z,99911
2017-11-12T05:22:23.018Z,99910
2017-11-12T05:24:51.165Z,99909
2017-11-12T05:27:20.073Z,99915
2017-11-12T05:29:48.218Z,99920
2017-11-12T05:32:17.182Z,99909
2017-11-12T05:34:45.351Z,99914
2017-11-12T05:37:13.716Z,99909
2017-11-12T05:39:41.872Z,99912
2017-11-12T05:42:10.015Z,99900
2017-11-12T05:44:38.928Z,99891
2017-11-12T05:47:07.132Z,99889
2017-11-12T05:49:35.288Z,99894
2017-11-12T05:52:03.530Z,99886
2017-11-12T05:54:32.458Z,99893
2017-11-12T05:57:01.124Z,99898
2017-11-12T05:59:29.300Z,99897
2017-11-12T06:01:57.474Z,99888
2017-11-12T06:04:25.675Z,99894
2017-11-12T06:06:53.836Z,99898
2017-11-12T06:09:21.985Z,99904
2017-11-12T06:11:50.146Z,99887
2017-11-12T06:14:19.042Z,99893
2017-11-12T06:16:47.198Z,99895
2017-11-12T06:19:16.102Z,99907
2017-11-12T06:21:44.349Z,99890
2017-11-12T06:24:12.490Z,99899
2017-11-12T06:26:40.648Z,99891
2017-11-12T06:29:08.784Z,99891
2017-11-12T06:31:37.721Z,99890
2017-11-12T06:34:05.851Z,99887
2017-11-12T06:36:34.784Z,99893
2017-11-12T06:39:02.950Z,99883
2017-11-12T06:41:31.129Z,99879
2017-11-12T06:43:59.270Z,99876
2017-11-12T06:46:27.482Z,99881
2017-11-12T06:48:55.754Z,99880
2017-11-12T06:51:24.214Z,99881
2017-11-12T06:53:52.374Z,99876
2017-11-12T06:56:20.572Z,99869
2017-11-12T06:58:48.730Z,99854
2017-11-12T07:01:16.862Z,99858
2017-11-12T07:03:45.007Z,99857
2017-11-12T07:06:13.149Z,99851
2017-11-12T07:08:42.103Z,99847
2017-11-12T07:11:11.013Z,99845
2017-11-12T07:13:39.168Z,99832
2017-11-12T07:16:08.063Z,99842
2017-11-12T07:18:36.997Z,99844
2017-11-12T07:21:05.128Z,99846
2017-11-12T07:23:34.059Z,99845
2017-11-12T07:26:02.188Z,99853
2017-11-12T07:28:31.115Z,99846
2017-11-12T07:30:59.292Z,99851
2017-11-12T07:33:27.435Z,99850
2017-11-12T07:35:55.644Z,99846
2017-11-12T07:38:23.788Z,99837
2017-11-12T07:40:51.995Z,99827
2017-11-12T07:43:20.137Z,99830
2017-11-12T07:45:48.332Z,99840
2017-11-12T07:48:16.485Z,99834
2017-11-12T07:50:44.688Z,99827
2017-11-12T07:53:12.883Z,99825
2017-11-12T07:55:41.036Z,99822
2017-11-12T07:58:09.167Z,99831
2017-11-12T08:00:37.339Z,99823
2017-11-12T08:03:05.481Z,99834
2017-11-12T08:05:33.623Z,99842
2017-11-12T08:08:01.778Z,99831
2017-11-12T08:10:29.902Z,99829
2017-11-12T08:12:58.068Z,99832
2017-11-12T08:15:26.207Z,99830
2017-11-12T08:17:54.351Z,99832
2017-11-12T08:20:22.548Z,99833
2017-11-12T08:22:51.623Z,99822
2017-11-12T08:25:19.821Z,99820
2017-11-12T08:27:47.990Z,99806
2017-11-12T08:30:16.132Z,99801
2017-11-12T08:32:44.275Z,99805
2017-11-12T08:35:12.501Z,99807
2017-11-12T08:37:40.677Z,99802
2017-11-12T08:40:08.812Z,99801
2017-11-12T08:42:38.639Z,99803
2017-11-12T08:45:06.792Z,99792
2017-11-12T08:47:35.776Z,99782
2017-11-12T08:50:03.937Z,99791
2017-11-12T08:52:32.087Z,99791
2017-11-12T08:55:00.262Z,99777
2017-11-12T08:57:28.386Z,99775
2017-11-12T08:59:56.588Z,99780
2017-11-12T09:02:24.748Z,99783
2017-11-12T09:04:52.902Z,99772
2017-11-12T09:07:21.600Z,99768
2017-11-12T09:09:49.793Z,99759
2017-11-12T09:12:18.189Z,99758
2017-11-12T09:14:46.385Z,99754
2017-11-12T09:17:14.625Z,99758
2017-11-12T09:19:43.400Z,99760
2017-11-12T09:22:13.185Z,99764
2017-11-12T09:24:41.335Z,99758
2017-11-12T09:27:10.276Z,99759
2017-11-12T09:29:38.410Z,99757
2017-11-12T09:32:07.345Z,99748
2017-11-12T09:34:35.558Z,99735
2017-11-12T09:37:04.508Z,99744
2017-11-12T09:39:32.648Z,99733
2017-11-12T09:42:00.813Z,99733
2017-11-12T09:44:28.965Z,99741
2017-11-12T09:46:57.116Z,99729
2017-11-12T09:49:25.274Z,99731
2017-11-12T09:51:53.536Z,99731
2017-11-12T09:54:21.675Z,99732
2017-11-12T09:56:50.627Z,99722
2017-11-12T09:59:18.964Z,99726
2017-11-12T10:01:47.153Z,99712
2017-11-12T10:04:15.324Z,99717
2017-11-12T10:06:43.485Z,99708
2017-11-12T10:09:11.680Z,99711
2017-11-12T10:11:40.090Z,99721
2017-11-12T10:14:09.078Z,99703
2017-11-12T10:16:37.215Z,99702
2017-11-12T10:19:05.401Z,99704
2017-11-12T10:21:33.741Z,99702
2017-11-12T10:24:01.900Z,99687
2017-11-12T10:26:30.852Z,99693
2017-11-12T10:28:59.030Z,99698
2017-11-12T10:31:27.171Z,99692
2017-11-12T10:33:55.328Z,99692
2017-11-12T10:36:23.468Z,99691
2017-11-12T10:38:52.396Z,99692
2017-11-12T10:41:20.554Z,99685
2017-11-12T10:43:48.699Z,99684
2017-11-12T10:46:17.627Z,99691
2017-11-12T10:48:45.775Z,99696
2017-11-12T10:51:14.814Z,99687
2017-11-12T10:53:42.963Z,99685
2017-11-12T10:56:11.127Z,99681
2017-11-12T10:58:39.288Z,99677
2017-11-12T11:01:08.228Z,99682
2017-11-12T11:03:36.370Z,99686
2017-11-12T11:06:04.558Z,99675
2017-11-12T11:08:32.703Z,99669
2017-11-12T11:11:00.866Z,99657
2017-11-12T11:13:29.780Z,99652
2017-11-12T11:15:57.955Z,99645
2017-11-12T11:18:26.103Z,99645
2017-11-12T11:20:55.035Z,99646
2017-11-12T11:23:24.260Z,99640
2017-11-12T11:25:52.515Z,99634
2017-11-12T11:28:20.645Z,99642
2017-11-12T11:30:48.802Z,99639
2017-11-12T11:33:17.744Z,99625
2017-11-12T11:35:45.904Z,99624
2017-11-12T11:38:14.089Z,99627
2017-11-12T11:40:42.674Z,99620
2017-11-12T11:43:10.943Z,99624
2017-11-12T11:45:39.088Z,99611
2017-11-12T11:48:07.268Z,99616
2017-11-12T11:50:35.395Z,99612
2017-11-12T11:53:03.561Z,99621
2017-11-12T11:55:31.698Z,99612
2017-11-12T11:57:59.868Z,99605
2017-11-12T12:00:28.019Z,99613
2017-11-12T12:02:56.539Z,99597
2017-11-12T12:05:25.511Z,99598
2017-11-12T12:07:53.678Z,99594
2017-11-12T12:10:21.843Z,99599
2017-11-12T12:12:50.059Z,99588
2017-11-12T12:15:18.216Z,99584
2017-11-12T12:17:46.380Z,99580
2017-11-12T12:20:14.549Z,99569
2017-11-12T12:22:42.696Z,99563
2017-11-12T12:25:10.866Z,99565
2017-11-12T12:27:39.084Z,99561
2017-11-12T12:30:07.241Z,99564
2017-11-12T12:32:35.387Z,99545
2017-11-12T12:35:03.560Z,99544
2017-11-12T12:37:31.723Z,99529
2017-11-12T12:40:00.683Z,99525
2017-11-12T12:42:28.818Z,99521
2017-11-12T12:44:56.964Z,99525
2017-11-12T12:47:25.868Z,99514
2017-11-12T12:49:54.073Z,99503
2017-11-12T12:52:22.240Z,99500
2017-11-12T12:54:50.425Z,99494
2017-11-12T12:57:18.595Z,99484
2017-11-12T12:59:46.739Z,99471
2017-11-12T13:02:14.944Z,99469
2017-11-12T13:04:43.113Z,99453
2017-11-12T13:07:11.264Z,99458
2017-11-12T13:09:39.430Z,99455
2017-11-12T13:12:07.595Z,99454
2017-11-12T13:14:35.739Z,99451
2017-11-12T13:17:03.884Z,99438
2017-11-12T13:19:32.060Z,99433
2017-11-12T13:22:00.220Z,99433
2017-11-12T13:24:28.375Z,99421
2017-11-12T13:26:56.541Z,99420
2017-11-12T13:29:24.979Z,99437
2017-11-12T13:31:53.755Z,99450
2017-11-12T13:34:21.895Z,99455
2017-11-12T13:36:50.090Z,99468
2017-11-12T13:39:18.242Z,99472
2017-11-12T13:41:46.440Z,99468
2017-11-12T13:44:15.042Z,99475
2017-11-12T13:46:43.203Z,99486
2017-11-12T13:49:11.390Z,99485
2017-11-12T13:51:40.295Z,99483
2017-11-12T13:54:09.236Z,99479
2017-11-12T13:56:37.403Z,99484
2017-11-12T13:59:05.578Z,99480
2017-11-12T14:01:33.754Z,99489
2017-11-12T14:04:02.018Z,99491
2017-11-12T14:06:30.156Z,99491
2017-11-12T14:09:02.294Z,99493
2017-11-12T14:11:30.465Z,99487
2017-11-12T14:13:58.647Z,99488
2017-11-12T14:16:27.560Z,99497
2017-11-12T14:18:55.725Z,99489
2017-11-12T14:21:24.640Z,99490
2017-11-12T14:23:52.808Z,99477
2017-11-12T14:26:21.833Z,99471
2017-11-12T14:28:50.009Z,99467
2017-11-12T14:31:18.177Z,99463
2017-11-12T14:33:46.929Z,99452
2017-11-12T14:36:15.805Z,99450
2017-11-12T14:38:44.735Z,99459
2017-11-12T14:41:13.460Z,99456
2017-11-12T14:43:41.612Z,99458
2017-11-12T14:46:09.791Z,99455
2017-11-12T14:48:37.943Z,99445
2017-11-12T14:51:06.099Z,99439
2017-11-12T14:53:34.253Z,99440
2017-11-12T14:56:02.443Z,99435
2017-11-12T14:58:30.595Z,99434
2017-11-12T15:00:59.533Z,99435
2017-11-12T15:03:27.681Z,99438
2017-11-12T15:05:55.859Z,99431
2017-11-12T15:08:23.991Z,99439
2017-11-12T15:10:52.945Z,99440
2017-11-12T15:13:21.087Z,99435
2017-11-12T15:15:49.238Z,99430
2017-11-12T15:18:17.402Z,99436
2017-11-12T15:20:47.287Z,99434
2017-11-12T15:23:15.444Z,99440
2017-11-12T15:25:43.605Z,99433
2017-11-12T15:28:11.755Z,99439
2017-11-12T15:30:39.906Z,99437
2017-11-12T15:33:09.449Z,99444
2017-11-12T15:35:37.595Z,99439
2017-11-12T15:38:05.743Z,99428
2017-11-12T15:40:33.897Z,99425
2017-11-12T15:43:02.068Z,99440
2017-11-12T15:45:30.232Z,99428
2017-11-12T15:47:58.505Z,99416
2017-11-12T15:50:26.677Z,99413
2017-11-12T15:52:54.857Z,99408
2017-11-12T15:55:23.470Z,99406
2017-11-12T15:57:52.380Z,99400
2017-11-12T16:00:20.540Z,99413
2017-11-12T16:02:49.457Z,99405
2017-11-12T16:05:17.775Z,99401
2017-11-12T16:07:45.906Z,99402
2017-11-12T16:10:14.180Z,99398
2017-11-12T16:12:42.327Z,99405
2017-11-12T16:15:10.501Z,99404
2017-11-12T16:17:39.410Z,99404
2017-11-12T16:20:07.571Z,99411
2017-11-12T16:22:36.528Z,99406
2017-11-12T16:25:04.701Z,99403
2017-11-12T16:27:32.853Z,99410
2017-11-12T16:30:01.022Z,99402
2017-11-12T16:32:29.159Z,99407
2017-11-12T16:34:57.314Z,99401
2017-11-12T16:37:26.243Z,99403
2017-11-12T16:39:54.410Z,99402
2017-11-12T16:42:22.568Z,99399
2017-11-12T16:44:50.738Z,99404
2017-11-12T16:47:18.883Z,99390
2017-11-12T16:49:47.856Z,99384
2017-11-12T16:52:16.038Z,99381
2017-11-12T16:54:44.183Z,99384
2017-11-12T16:57:12.347Z,99365
2017-11-12T16:59:40.505Z,99359
2017-11-12T17:02:08.690Z,99363
2017-11-12T17:04:37.259Z,99355
2017-11-12T17:07:05.434Z,99345
2017-11-12T17:09:33.582Z,99342
2017-11-12T17:12:02.518Z,99346
2017-11-12T17:14:31.187Z,99358
2017-11-12T17:16:59.363Z,99366
2017-11-12T17:19:27.499Z,99362
2017-11-12T17:21:56.434Z,99359
2017-11-12T17:24:24.575Z,99359
2017-11-12T17:26:52.757Z,99362
2017-11-12T17:29:20.904Z,99352
2017-11-12T17:31:49.860Z,99362
2017-11-12T17:34:18.005Z,99367
2017-11-12T17:36:46.184Z,99358
2017-11-12T17:39:14.350Z,99343
2017-11-12T17:41:42.501Z,99344
2017-11-12T17:44:10.671Z,99364
2017-11-12T17:46:38.807Z,99359
2017-11-12T17:49:07.043Z,99366
2017-11-12T17:51:35.197Z,99382
2017-11-12T17:54:03.403Z,99381
2017-11-12T17:56:31.583Z,99385
2017-11-12T17:58:59.745Z,99389
2017-11-12T18:01:27.913Z,99384
2017-11-12T18:03:56.093Z,99376
2017-11-12T18:06:24.244Z,99386
2017-11-12T18:08:52.402Z,99401
2017-11-12T18:11:20.539Z,99403
2017-11-12T18:13:48.714Z,99397
2017-11-12T18:16:16.955Z,99405
2017-11-12T18:18:45.266Z,99409
2017-11-12T18:21:13.986Z,99421
2017-11-12T18:23:42.187Z,99423
2017-11-12T18:26:10.342Z,99423
2017-11-12T18:28:38.952Z,99441
2017-11-12T18:31:07.143Z,99450
2017-11-12T18:33:35.294Z,99456
2017-11-12T18:36:03.442Z,99451
2017-11-12T18:38:32.071Z,99455
2017-11-12T18:41:00.220Z,99450
2017-11-12T18:43:28.371Z,99453
2017-11-12T18:45:56.516Z,99465
2017-11-12T18:48:25.462Z,99456
2017-11-12T18:50:53.603Z,99449
2017-11-12T18:53:21.802Z,99447
2017-11-12T18:56:10.748Z,99449
2017-11-12T18:58:39.254Z,99452
2017-11-12T19:01:27.177Z,99452
2017-11-12T19:07:08.657Z,99454
2017-11-12T19:09:36.825Z,99449
2017-11-12T19:12:08.507Z,99467
2017-11-12T19:14:36.673Z,99465
2017-11-12T19:20:05.047Z,99465
2017-11-12T19:22:33.184Z,99463
2017-11-12T19:25:11.234Z,99465
2017-11-12T19:27:39.404Z,99471
2017-11-12T19:30:08.049Z,99465
2017-11-12T19:32:36.192Z,99462
2017-11-12T19:35:04.363Z,99439
2017-11-12T19:37:32.515Z,99442
2017-11-12T19:40:00.843Z,99432
2017-11-12T19:42:29.082Z,99431
2017-11-12T19:44:57.246Z,99466
2017-11-12T19:47:25.411Z,99490
2017-11-12T19:49:53.546Z,99514
2017-11-12T19:52:22.473Z,99525
2017-11-12T19:54:50.642Z,99533
2017-11-12T19:57:18.801Z,99539
2017-11-12T19:59:46.943Z,99525
2017-11-12T20:02:15.099Z,99527
2017-11-12T20:04:43.240Z,99535
2017-11-12T20:07:11.391Z,99539
2017-11-12T20:09:39.535Z,99545
2017-11-12T20:12:07.714Z,99542
2017-11-12T20:14:36.631Z,99537
2017-11-12T20:17:04.792Z,99546
2017-11-12T20:19:33.007Z,99533
2017-11-12T20:22:01.178Z,99544
2017-11-12T20:24:29.432Z,99550
2017-11-12T20:26:58.525Z,99542
2017-11-12T20:29:26.676Z,99539
2017-11-12T20:31:56.335Z,99553
2017-11-12T20:34:24.503Z,99567
2017-11-12T20:36:52.667Z,99590
2017-11-12T20:39:20.842Z,99593
2017-11-12T20:41:48.995Z,99601
2017-11-12T20:44:17.159Z,99605
2017-11-12T20:46:45.305Z,99597
2017-11-12T20:49:14.265Z,99589
2017-11-12T20:51:42.429Z,99596
2017-11-12T20:54:10.594Z,99592
2017-11-12T20:56:39.913Z,99597
2017-11-12T20:59:08.075Z,99590
2017-11-12T21:01:36.483Z,99599
2017-11-12T21:04:08.004Z,99604
2017-11-12T21:06:36.154Z,99601
2017-11-12T21:09:04.369Z,99611
2017-11-12T21:11:32.545Z,99627
2017-11-12T21:14:00.713Z,99627
2017-11-12T21:16:28.867Z,99632
2017-11-12T21:18:57.039Z,99647
2017-11-12T21:24:28.079Z,99655
2017-11-12T21:26:58.564Z,99646
2017-11-12T21:29:29.220Z,99653
2017-11-12T21:31:57.765Z,99643
2017-11-12T21:37:29.459Z,99643
2017-11-12T21:39:58.382Z,99645
2017-11-12T21:42:26.529Z,99644
2017-11-12T21:44:55.468Z,99649
2017-11-12T21:47:23.633Z,99648
2017-11-12T21:49:51.790Z,99657
2017-11-12T21:52:19.948Z,99658
2017-11-12T21:54:48.097Z,99657
2017-11-12T21:57:17.032Z,99659
2017-11-12T21:59:45.184Z,99668
2017-11-12T22:02:13.415Z,99663
2017-11-12T22:04:41.575Z,99666
2017-11-12T22:07:09.748Z,99668
2017-11-12T22:09:37.998Z,99666
2017-11-12T22:12:06.181Z,99668
2017-11-12T22:14:34.433Z,99666
2017-11-12T22:17:02.600Z,99674
2017-11-12T22:19:30.756Z,99681
2017-11-12T22:22:00.305Z,99690
2017-11-12T22:24:28.483Z,99677
2017-11-12T22:26:56.667Z,99668
2017-11-12T22:29:24.803Z,99670
2017-11-12T22:31:52.940Z,99666
2017-11-12T22:34:21.122Z,99672
2017-11-12T22:36:50.050Z,99681
2017-11-12T22:39:18.220Z,99685
2017-11-12T22:41:46.368Z,99686
2017-11-12T22:44:15.312Z,99706
2017-11-12T22:46:44.150Z,99690
2017-11-12T22:49:13.821Z,99707
2017-11-12T22:51:42.189Z,99712
2017-11-12T22:54:10.360Z,99729
2017-11-12T22:56:38.509Z,99737
2017-11-12T22:59:06.676Z,99739
2017-11-12T23:01:34.828Z,99751
2017-11-12T23:04:03.015Z,99747
2017-11-12T23:06:31.165Z,99744
2017-11-12T23:09:00.107Z,99746
2017-11-12T23:11:28.265Z,99744
2017-11-12T23:13:56.438Z,99736
2017-11-12T23:16:24.578Z,99747
2017-11-12T23:18:52.754Z,99757
2017-11-12T23:21:20.893Z,99748
2017-11-12T23:23:49.070Z,99746
2017-11-12T23:26:18.131Z,99743
2017-11-12T23:28:46.295Z,99750
2017-11-12T23:31:14.436Z,99756
2017-11-12T23:33:43.055Z,99755
2017-11-12T23:36:11.204Z,99777
2017-11-12T23:38:39.441Z,99784
2017-11-12T23:41:08.205Z,99783
2017-11-12T23:43:36.436Z,99783
2017-11-12T23:46:04.601Z,99786
2017-11-12T23:48:32.763Z,99791
2017-11-12T23:51:01.684Z,99794
2017-11-12T23:53:29.845Z,99794
2017-11-12T23:55:58.032Z,99792
2017-11-12T23:58:26.188Z,99794
